Time;durP1;ratioP1;P1;durP2;ratioP2;P2;SDS_P1;SDS_P2;PMS_P1;PMS_P2;Temp;Humidity;BMP_temperature;BMP_pressure;BME280_temperature;BME280_humidity;BME280_pressure;Samples;Min_cycle;Max_cycle;Signal;HPM_P1;HPM_P2
2023/04/30 00:02:07;;;;;;;3.28;1.20;;;20.40;56.20;;;;;;5090030;28;20044;-66
2023/04/30 00:04:33;;;;;;;1.80;1.08;;;20.40;56.20;;;;;;5091813;28;20051;-66
2023/04/30 00:06:58;;;;;;;1.80;1.10;;;20.40;56.20;;;;;;5090985;28;20040;-66
2023/04/30 00:09:24;;;;;;;2.47;1.23;;;20.30;56.10;;;;;;5091611;28;20044;-66
2023/04/30 00:11:49;;;;;;;2.90;1.20;;;20.30;56.00;;;;;;5092393;28;20068;-66
2023/04/30 00:14:15;;;;;;;2.25;1.20;;;20.30;56.00;;;;;;5091983;28;20040;-66
2023/04/30 00:16:40;;;;;;;3.53;1.20;;;20.30;56.00;;;;;;5091245;28;20048;-67
2023/04/30 00:19:07;;;;;;;3.13;1.30;;;20.30;56.00;;;;;;5091598;28;20043;-67
2023/04/30 00:21:33;;;;;;;2.97;1.00;;;20.30;55.90;;;;;;5091566;28;20667;-67
2023/04/30 00:23:59;;;;;;;2.60;1.10;;;20.30;56.00;;;;;;5093650;28;20048;-67
2023/04/30 00:26:25;;;;;;;1.83;1.00;;;20.30;55.90;;;;;;5095744;28;20044;-67
2023/04/30 00:28:51;;;;;;;2.50;1.30;;;20.30;55.90;;;;;;5095009;28;20036;-67
2023/04/30 00:31:16;;;;;;;2.22;1.15;;;20.30;55.90;;;;;;5075173;28;20600;-67
2023/04/30 00:33:42;;;;;;;1.85;1.00;;;20.30;55.90;;;;;;5075138;28;20037;-67
2023/04/30 00:36:07;;;;;;;3.22;1.05;;;20.20;55.80;;;;;;5092623;28;20156;-67
2023/04/30 00:38:33;;;;;;;2.60;1.42;;;20.20;55.80;;;;;;5094298;28;20055;-67
2023/04/30 00:40:58;;;;;;;2.65;1.27;;;20.20;55.80;;;;;;5094849;28;20051;-67
2023/04/30 00:43:24;;;;;;;3.03;1.40;;;20.20;55.80;;;;;;5093157;28;20055;-67
2023/04/30 00:45:49;;;;;;;2.22;1.05;;;20.20;55.80;;;;;;5095103;28;20046;-67
2023/04/30 00:48:15;;;;;;;3.10;1.20;;;20.20;55.80;;;;;;5095037;28;20040;-67
2023/04/30 00:50:40;;;;;;;1.75;0.95;;;20.20;55.70;;;;;;5075218;28;20040;-67
2023/04/30 00:53:06;;;;;;;2.20;1.02;;;20.20;55.80;;;;;;5076517;28;20044;-67
2023/04/30 00:55:32;;;;;;;3.10;1.20;;;20.20;55.70;;;;;;5095018;28;20531;-67
2023/04/30 00:57:58;;;;;;;1.88;1.08;;;20.20;55.70;;;;;;5094150;28;20514;-67
2023/04/30 01:00:24;;;;;;;2.90;1.08;;;20.20;55.70;;;;;;5105224;28;20509;-67
2023/04/30 01:02:49;;;;;;;2.42;1.13;;;20.20;55.60;;;;;;5115308;28;20047;-67
2023/04/30 01:05:15;;;;;;;2.20;1.08;;;20.10;55.60;;;;;;5113691;28;20510;-67
2023/04/30 01:07:44;;;;;;;2.70;1.25;;;20.10;55.60;;;;;;5115433;28;20062;-67
2023/04/30 01:10:11;;;;;;;2.40;1.20;;;20.10;55.60;;;;;;5113301;28;20035;-66
2023/04/30 01:12:54;;;;;;;3.75;1.52;;;20.10;55.60;;;;;;5114612;28;20040;-67
2023/04/30 01:15:23;;;;;;;2.50;1.23;;;20.10;55.60;;;;;;5113510;28;20509;-67
2023/04/30 01:18:17;;;;;;;2.25;1.10;;;20.10;55.60;;;;;;5114939;28;20047;-67
2023/04/30 01:20:47;;;;;;;1.50;0.98;;;20.10;55.50;;;;;;5113580;28;20043;-67
2023/04/30 01:23:19;;;;;;;3.45;1.33;;;20.10;55.60;;;;;;5099551;28;20062;-67
2023/04/30 01:26:15;;;;;;;3.15;1.17;;;20.10;55.50;;;;;;5101010;28;20150;-67
2023/04/30 01:28:42;;;;;;;2.60;1.27;;;20.10;55.50;;;;;;5094461;28;20040;-67
2023/04/30 01:31:15;;;;;;;2.37;1.03;;;20.00;55.50;;;;;;5108835;28;20044;-67
2023/04/30 01:33:41;;;;;;;1.90;1.17;;;20.00;55.40;;;;;;5112028;28;20370;-67
2023/04/30 01:36:28;;;;;;;2.58;1.30;;;20.10;55.50;;;;;;5113757;28;20043;-67
2023/04/30 01:39:22;;;;;;;2.80;1.17;;;20.00;55.40;;;;;;5113572;28;20058;-67
2023/04/30 01:42:02;;;;;;;2.55;1.13;;;20.00;55.40;;;;;;5114456;28;20482;-67
2023/04/30 01:44:48;;;;;;;2.67;1.00;;;20.00;55.40;;;;;;5096177;28;20055;-67
2023/04/30 01:47:59;;;;;;;3.08;1.17;;;20.00;55.30;;;;;;5112403;28;20055;-67
2023/04/30 01:50:46;;;;;;;2.33;1.25;;;20.00;55.30;;;;;;5093306;28;20121;-67
2023/04/30 01:53:31;;;;;;;3.30;1.17;;;19.90;55.30;;;;;;5112052;28;20096;-67
2023/04/30 01:56:01;;;;;;;2.50;1.27;;;19.90;55.30;;;;;;5112631;28;20073;-67
2023/04/30 01:58:26;;;;;;;2.30;1.00;;;19.90;55.30;;;;;;5114378;28;20040;-67
2023/04/30 02:00:52;;;;;;;3.22;1.27;;;19.90;55.20;;;;;;5087857;28;20097;-67
2023/04/30 02:03:17;;;;;;;2.58;1.30;;;19.90;55.20;;;;;;5093213;28;20052;-67
2023/04/30 02:05:43;;;;;;;3.75;1.30;;;19.90;55.20;;;;;;5092925;28;20039;-67
2023/04/30 02:08:09;;;;;;;2.20;1.10;;;19.90;55.20;;;;;;5092513;28;20040;-67
2023/04/30 02:10:34;;;;;;;2.35;1.10;;;19.90;55.20;;;;;;5093658;28;20123;-67
2023/04/30 02:13:00;;;;;;;2.42;1.20;;;19.90;55.10;;;;;;5093427;28;20434;-67
2023/04/30 02:15:26;;;;;;;2.90;1.13;;;19.90;55.10;;;;;;5092751;28;20074;-67
2023/04/30 02:17:51;;;;;;;2.10;1.15;;;19.90;55.10;;;;;;5093287;28;20052;-67
2023/04/30 02:20:17;;;;;;;1.60;1.00;;;19.90;55.10;;;;;;5093212;28;20063;-67
2023/04/30 02:22:43;;;;;;;2.92;1.00;;;19.90;55.10;;;;;;5092737;28;20436;-67
2023/04/30 02:25:10;;;;;;;2.90;1.48;;;19.90;55.10;;;;;;5092906;28;20507;-67
2023/04/30 02:27:35;;;;;;;2.00;1.00;;;19.80;55.10;;;;;;5091963;28;20052;-67
2023/04/30 02:30:01;;;;;;;2.08;1.10;;;19.80;55.00;;;;;;5090773;28;20040;-67
2023/04/30 02:32:27;;;;;;;1.92;1.20;;;19.90;55.10;;;;;;5093202;28;20044;-67
2023/04/30 02:34:52;;;;;;;3.17;1.40;;;19.80;55.10;;;;;;5092777;28;20043;-67
2023/04/30 02:37:18;;;;;;;2.40;1.23;;;19.90;55.00;;;;;;5092039;28;20044;-67
2023/04/30 02:39:44;;;;;;;2.08;1.00;;;19.80;55.00;;;;;;5093243;28;20040;-68
2023/04/30 02:42:10;;;;;;;1.92;1.10;;;19.80;55.00;;;;;;5072606;28;20044;-67
2023/04/30 02:44:35;;;;;;;2.50;1.20;;;19.80;55.00;;;;;;5071932;28;20041;-66
2023/04/30 02:47:01;;;;;;;2.55;1.30;;;19.80;55.00;;;;;;5091399;28;20036;-67
2023/04/30 02:49:27;;;;;;;2.30;1.02;;;19.80;54.90;;;;;;5092462;28;20100;-67
2023/04/30 02:51:53;;;;;;;2.88;0.90;;;19.80;55.00;;;;;;5093229;28;20089;-67
2023/04/30 02:54:18;;;;;;;1.63;1.00;;;19.80;54.90;;;;;;5092476;28;20059;-67
2023/04/30 02:56:45;;;;;;;2.00;1.00;;;19.80;54.90;;;;;;5092197;28;20044;-67
2023/04/30 02:59:10;;;;;;;2.25;1.20;;;19.70;54.80;;;;;;5092772;28;20036;-67
2023/04/30 03:01:36;;;;;;;2.00;1.00;;;19.70;54.80;;;;;;5092720;28;20483;-67
2023/04/30 03:04:04;;;;;;;2.85;1.27;;;19.70;54.70;;;;;;5091717;28;20062;-67
2023/04/30 03:06:30;;;;;;;2.88;1.17;;;19.70;54.70;;;;;;5092719;28;20071;-67
2023/04/30 03:08:56;;;;;;;2.95;1.20;;;19.70;54.70;;;;;;5092451;28;20048;-67
2023/04/30 03:11:22;;;;;;;2.88;1.17;;;19.80;54.80;;;;;;5103800;28;20051;-67
2023/04/30 03:13:50;;;;;;;2.05;0.93;;;19.70;54.70;;;;;;5112950;28;20043;-67
2023/04/30 03:16:17;;;;;;;1.73;0.90;;;19.70;54.60;;;;;;5112576;28;20043;-67
2023/04/30 03:18:43;;;;;;;2.33;0.88;;;19.70;54.70;;;;;;5112234;28;20054;-67
2023/04/30 03:21:08;;;;;;;3.33;1.20;;;19.70;54.60;;;;;;5112489;28;20035;-67
2023/04/30 03:23:34;;;;;;;1.83;1.00;;;19.80;54.70;;;;;;5112935;28;20043;-66
2023/04/30 03:26:00;;;;;;;2.10;1.10;;;19.70;54.50;;;;;;5111415;28;20044;-67
2023/04/30 03:28:26;;;;;;;2.53;1.20;;;19.70;54.50;;;;;;5112901;28;20047;-67
2023/04/30 03:30:51;;;;;;;2.75;1.33;;;19.70;54.50;;;;;;5112658;28;20039;-67
2023/04/30 03:33:17;;;;;;;1.42;0.90;;;19.80;54.50;;;;;;5111539;28;20046;-67
2023/04/30 03:35:43;;;;;;;2.22;1.02;;;19.70;54.40;;;;;;5112601;28;20035;-67
2023/04/30 03:38:08;;;;;;;2.70;1.30;;;19.70;54.40;;;;;;5111422;28;20399;-67
2023/04/30 03:40:34;;;;;;;1.92;1.10;;;19.70;54.30;;;;;;5111969;28;20123;-67
2023/04/30 03:42:59;;;;;;;3.83;1.10;;;19.70;54.40;;;;;;5112206;28;20171;-67
2023/04/30 03:45:25;;;;;;;1.85;1.20;;;19.70;54.40;;;;;;5112933;28;20118;-67
2023/04/30 03:47:51;;;;;;;1.98;1.05;;;19.80;54.50;;;;;;5111656;28;20035;-67
2023/04/30 03:50:17;;;;;;;1.98;1.10;;;19.80;54.50;;;;;;5110969;28;20071;-67
2023/04/30 03:52:42;;;;;;;2.55;1.15;;;19.80;54.50;;;;;;5112438;28;20097;-68
2023/04/30 03:55:09;;;;;;;2.17;1.00;;;19.80;54.50;;;;;;5110655;28;20065;-67
2023/04/30 03:57:34;;;;;;;2.58;1.05;;;19.80;54.50;;;;;;5111844;28;20047;-67
2023/04/30 04:00:00;;;;;;;2.55;1.40;;;19.80;54.50;;;;;;5115686;28;20089;-67
2023/04/30 04:02:25;;;;;;;2.10;1.00;;;19.80;54.40;;;;;;5105745;28;20092;-67
2023/04/30 04:04:51;;;;;;;1.63;1.00;;;19.80;54.40;;;;;;5094796;28;20078;-67
2023/04/30 04:07:17;;;;;;;1.83;1.10;;;19.80;54.40;;;;;;5094370;28;20036;-67
2023/04/30 04:09:43;;;;;;;2.45;1.20;;;19.90;54.40;;;;;;5096103;28;20051;-67
2023/04/30 04:12:09;;;;;;;1.88;1.33;;;19.90;54.40;;;;;;5109256;28;20043;-67
2023/04/30 04:14:34;;;;;;;1.60;1.00;;;19.90;54.40;;;;;;5115441;28;20098;-67
2023/04/30 04:17:00;;;;;;;2.40;1.10;;;19.90;54.40;;;;;;5115190;28;20051;-67
2023/04/30 04:19:26;;;;;;;2.60;1.08;;;19.90;54.50;;;;;;5116264;28;20515;-67
2023/04/30 04:21:52;;;;;;;3.70;1.23;;;19.90;54.40;;;;;;5115087;28;20086;-67
2023/04/30 04:24:17;;;;;;;3.15;1.23;;;19.90;54.40;;;;;;5115593;28;20063;-67
2023/04/30 04:26:43;;;;;;;1.88;1.08;;;19.90;54.40;;;;;;5115889;28;20043;-67
2023/04/30 04:29:09;;;;;;;1.80;0.93;;;19.90;54.30;;;;;;5114902;28;20044;-68
2023/04/30 04:31:34;;;;;;;1.83;0.90;;;20.00;54.40;;;;;;5115549;28;20051;-68
2023/04/30 04:34:01;;;;;;;2.60;1.20;;;20.00;54.40;;;;;;5115777;28;20039;-67
2023/04/30 04:36:27;;;;;;;2.45;1.00;;;20.00;55.00;;;;;;5114837;28;20036;-67
2023/04/30 04:38:56;;;;;;;1.90;1.00;;;20.00;54.30;;;;;;5115911;28;20062;-67
2023/04/30 04:41:23;;;;;;;2.38;1.20;;;20.00;54.30;;;;;;5115550;28;20462;-67
2023/04/30 04:43:49;;;;;;;2.75;1.17;;;20.00;54.30;;;;;;5113445;28;20489;-67
2023/04/30 04:46:15;;;;;;;2.65;1.10;;;20.00;54.30;;;;;;5115080;28;20542;-67
2023/04/30 04:48:41;;;;;;;1.88;0.93;;;20.00;54.20;;;;;;5115835;28;20074;-67
2023/04/30 04:51:07;;;;;;;2.40;1.20;;;20.00;54.20;;;;;;5114393;28;20100;-67
2023/04/30 04:53:33;;;;;;;2.00;1.00;;;20.00;54.20;;;;;;5115709;27;20198;-67
2023/04/30 04:55:58;;;;;;;2.30;1.00;;;20.00;54.10;;;;;;5114667;28;20126;-67
2023/04/30 04:58:24;;;;;;;2.50;1.08;;;20.00;54.20;;;;;;5113319;28;20086;-67
2023/04/30 05:00:50;;;;;;;2.55;1.13;;;20.00;54.20;;;;;;5114932;28;20070;-67
2023/04/30 05:03:16;;;;;;;1.77;1.00;;;20.00;54.20;;;;;;5113861;27;20122;-67
2023/04/30 05:05:42;;;;;;;1.92;1.02;;;20.00;54.10;;;;;;5113865;28;20051;-67
2023/04/30 05:08:07;;;;;;;3.00;0.82;;;20.10;54.20;;;;;;5074288;28;20044;-67
2023/04/30 05:10:33;;;;;;;2.10;1.10;;;20.10;54.10;;;;;;5073747;28;20052;-67
2023/04/30 05:12:59;;;;;;;1.65;1.00;;;20.10;54.20;;;;;;5091600;28;20044;-67
2023/04/30 05:15:25;;;;;;;2.75;1.23;;;20.10;54.10;;;;;;5093367;28;20039;-67
2023/04/30 05:17:50;;;;;;;2.72;1.30;;;20.10;54.10;;;;;;5094215;28;20052;-67
2023/04/30 05:20:16;;;;;;;2.13;0.90;;;20.10;54.10;;;;;;5094445;28;20054;-67
2023/04/30 05:22:41;;;;;;;3.05;1.08;;;20.10;54.10;;;;;;5094124;28;20075;-67
2023/04/30 05:25:07;;;;;;;2.63;1.25;;;20.10;54.20;;;;;;5092229;28;20083;-67
2023/04/30 05:27:33;;;;;;;2.40;1.08;;;20.10;54.20;;;;;;5107446;28;20043;-68
2023/04/30 05:29:59;;;;;;;1.60;0.82;;;20.10;54.90;;;;;;5114356;28;20058;-67
2023/04/30 05:32:25;;;;;;;1.70;0.88;;;20.10;54.20;;;;;;5113994;28;20039;-67
2023/04/30 05:34:51;;;;;;;2.25;1.20;;;20.10;54.10;;;;;;5113299;28;20044;-67
2023/04/30 05:37:18;;;;;;;1.58;1.10;;;20.10;54.10;;;;;;5114130;28;20040;-67
2023/04/30 05:39:43;;;;;;;2.17;0.85;;;20.10;54.10;;;;;;5114070;28;20546;-68
2023/04/30 05:42:09;;;;;;;2.47;1.10;;;20.20;54.20;;;;;;5113862;28;20138;-67
2023/04/30 05:44:35;;;;;;;3.22;1.00;;;20.10;54.20;;;;;;5114662;28;20043;-67
2023/04/30 05:47:00;;;;;;;2.67;0.98;;;20.10;54.20;;;;;;5113145;28;20395;-67
2023/04/30 05:49:26;;;;;;;2.20;0.93;;;20.20;54.30;;;;;;5114637;28;20040;-67
2023/04/30 05:51:51;;;;;;;2.60;1.00;;;20.20;54.30;;;;;;5113931;28;20070;-67
2023/04/30 05:54:17;;;;;;;1.60;0.90;;;20.20;54.30;;;;;;5113200;28;20035;-67
2023/04/30 05:56:43;;;;;;;2.47;1.00;;;20.20;54.30;;;;;;5114102;28;20088;-67
2023/04/30 05:59:08;;;;;;;1.45;0.90;;;20.20;54.30;;;;;;5113931;28;20565;-67
2023/04/30 06:01:34;;;;;;;1.45;0.80;;;20.20;54.30;;;;;;5113033;28;20031;-67
2023/04/30 06:04:00;;;;;;;2.28;0.90;;;20.20;54.30;;;;;;5113635;28;20139;-68
2023/04/30 06:06:26;;;;;;;3.10;1.02;;;20.20;54.30;;;;;;5112968;28;20040;-68
2023/04/30 06:08:52;;;;;;;1.67;0.98;;;20.20;54.30;;;;;;5114233;28;20040;-68
2023/04/30 06:11:17;;;;;;;2.53;0.90;;;20.20;54.30;;;;;;5113335;28;20047;-68
2023/04/30 06:13:45;;;;;;;1.48;0.80;;;20.20;54.30;;;;;;5113173;28;20050;-68
2023/04/30 06:16:11;;;;;;;1.73;1.00;;;20.20;54.30;;;;;;5113172;28;20073;-68
2023/04/30 06:18:36;;;;;;;2.42;0.93;;;20.20;54.30;;;;;;5113986;28;20043;-68
2023/04/30 06:21:02;;;;;;;1.63;0.88;;;20.20;54.30;;;;;;5112040;28;20048;-67
2023/04/30 06:23:28;;;;;;;1.95;0.98;;;20.30;54.40;;;;;;5111892;28;20054;-67
2023/04/30 06:25:53;;;;;;;1.65;0.70;;;20.20;54.30;;;;;;5092936;28;20513;-68
2023/04/30 06:28:19;;;;;;;1.20;0.93;;;20.30;54.40;;;;;;5091223;28;20117;-68
2023/04/30 06:30:45;;;;;;;1.63;0.82;;;20.20;54.30;;;;;;5093419;28;20499;-67
2023/04/30 06:33:10;;;;;;;1.70;0.80;;;20.30;54.40;;;;;;5091663;28;20407;-67
2023/04/30 06:35:36;;;;;;;1.58;0.85;;;20.30;54.30;;;;;;5092551;28;20040;-66
2023/04/30 06:38:01;;;;;;;1.38;0.60;;;20.30;54.40;;;;;;5092825;28;20085;-65
2023/04/30 06:40:27;;;;;;;4.55;1.00;;;20.30;54.40;;;;;;5093128;28;20048;-65
2023/04/30 06:42:53;;;;;;;2.45;0.85;;;20.30;54.40;;;;;;5092209;28;20040;-65
2023/04/30 06:45:19;;;;;;;2.83;1.00;;;20.30;54.30;;;;;;5092951;28;20488;-66
2023/04/30 06:47:45;;;;;;;2.95;1.08;;;20.40;54.40;;;;;;5092924;28;20127;-66
2023/04/30 06:50:11;;;;;;;2.65;0.90;;;20.40;54.40;;;;;;5091562;28;20036;-66
2023/04/30 06:52:37;;;;;;;5.85;1.20;;;20.40;54.40;;;;;;5093249;28;20055;-65
2023/04/30 06:55:03;;;;;;;3.22;1.00;;;20.40;54.40;;;;;;5092827;28;20047;-66
2023/04/30 06:57:29;;;;;;;3.25;1.02;;;20.40;54.50;;;;;;5092293;28;20055;-65
2023/04/30 06:59:56;;;;;;;2.20;1.00;;;20.40;54.40;;;;;;5092960;28;20040;-67
2023/04/30 07:02:21;;;;;;;6.90;1.10;;;20.40;54.40;;;;;;5092861;28;20360;-67
2023/04/30 07:04:48;;;;;;;2.25;0.85;;;20.40;54.40;;;;;;5090533;28;20510;-64
2023/04/30 07:07:13;;;;;;;4.22;1.05;;;20.50;54.50;;;;;;5096366;28;20040;-66
2023/04/30 07:09:39;;;;;;;5.68;1.40;;;20.50;54.60;;;;;;5092081;28;20047;-68
2023/04/30 07:12:05;;;;;;;7.38;1.02;;;20.50;54.60;;;;;;5091910;28;20046;-67
2023/04/30 07:14:30;;;;;;;4.05;1.08;;;20.50;54.60;;;;;;5091375;28;20040;-73
2023/04/30 07:16:56;;;;;;;3.80;1.30;;;20.50;54.70;;;;;;5091672;28;20032;-68
2023/04/30 07:19:24;;;;;;;3.50;1.00;;;20.50;54.70;;;;;;5092616;28;20123;-66
2023/04/30 07:21:49;;;;;;;4.28;0.85;;;20.50;54.70;;;;;;5090999;28;20044;-67
2023/04/30 07:24:15;;;;;;;3.85;0.88;;;20.50;54.70;;;;;;5087537;28;20059;-67
2023/04/30 07:26:41;;;;;;;6.10;1.48;;;20.50;54.80;;;;;;5091827;28;20040;-68
2023/04/30 07:29:06;;;;;;;3.35;0.70;;;20.50;54.90;;;;;;5090602;28;20055;-68
2023/04/30 07:31:33;;;;;;;2.97;1.00;;;20.50;55.00;;;;;;5091500;28;20119;-67
2023/04/30 07:33:58;;;;;;;2.88;0.93;;;20.60;55.10;;;;;;5095143;28;20380;-70
2023/04/30 07:36:26;;;;;;;5.47;0.98;;;20.60;55.20;;;;;;5095862;28;20510;-69
2023/04/30 07:38:51;;;;;;;3.43;0.93;;;20.60;55.20;;;;;;5095962;28;20476;-73
2023/04/30 07:41:17;;;;;;;4.80;0.93;;;20.60;55.30;;;;;;5095144;28;20093;-68
2023/04/30 07:43:43;;;;;;;4.93;1.10;;;20.60;55.30;;;;;;5095987;28;20087;-68
2023/04/30 07:46:08;;;;;;;5.00;1.38;;;20.60;55.50;;;;;;5094540;28;20074;-66
2023/04/30 07:48:34;;;;;;;3.03;1.08;;;20.60;55.50;;;;;;5092269;28;20072;-67
2023/04/30 07:51:00;;;;;;;3.55;1.00;;;20.60;55.50;;;;;;5094210;28;20036;-67
2023/04/30 07:53:25;;;;;;;2.75;0.85;;;20.60;55.60;;;;;;5094038;28;20047;-67
2023/04/30 07:55:51;;;;;;;1.90;0.90;;;20.70;55.60;;;;;;5096044;28;20123;-68
2023/04/30 07:58:16;;;;;;;5.75;1.10;;;20.70;55.70;;;;;;5095575;28;20075;-68
2023/04/30 08:00:42;;;;;;;2.60;0.80;;;20.70;55.70;;;;;;5094951;28;20074;-67
2023/04/30 08:03:07;;;;;;;3.05;1.05;;;20.70;55.70;;;;;;5095421;28;20114;-68
2023/04/30 08:05:33;;;;;;;2.30;0.90;;;20.70;55.80;;;;;;5096106;28;20040;-68
2023/04/30 08:07:59;;;;;;;4.70;1.00;;;20.70;55.80;;;;;;5095071;28;20094;-68
2023/04/30 08:10:25;;;;;;;3.20;1.00;;;20.70;55.80;;;;;;5095692;28;20499;-68
2023/04/30 08:12:51;;;;;;;3.35;1.20;;;20.70;55.80;;;;;;5102018;28;20039;-67
2023/04/30 08:15:20;;;;;;;3.05;1.00;;;20.80;55.90;;;;;;5115461;28;20035;-67
2023/04/30 08:17:47;;;;;;;2.67;0.90;;;20.80;55.90;;;;;;5115810;27;20051;-69
2023/04/30 08:20:13;;;;;;;5.97;1.27;;;20.80;55.80;;;;;;5115120;28;20075;-68
2023/04/30 08:22:39;;;;;;;4.70;1.05;;;20.80;55.80;;;;;;5115885;28;20133;-68
2023/04/30 08:25:05;;;;;;;4.90;0.85;;;20.80;55.80;;;;;;5115453;28;20048;-69
2023/04/30 08:27:31;;;;;;;3.10;1.00;;;20.80;55.90;;;;;;5115038;28;20043;-68
2023/04/30 08:29:56;;;;;;;4.40;1.15;;;20.90;56.00;;;;;;5114526;28;20044;-68
2023/04/30 08:32:22;;;;;;;3.90;1.00;;;20.90;56.00;;;;;;5115646;28;20118;-67
2023/04/30 08:34:47;;;;;;;7.55;1.13;;;20.90;56.00;;;;;;5113874;28;20046;-69
2023/04/30 08:37:13;;;;;;;2.30;1.13;;;20.90;56.00;;;;;;5115406;28;20036;-68
2023/04/30 08:39:39;;;;;;;3.58;0.90;;;20.90;56.00;;;;;;5115964;28;20051;-68
2023/04/30 08:42:07;;;;;;;2.70;0.85;;;20.90;56.00;;;;;;5109016;28;20060;-67
2023/04/30 08:44:34;;;;;;;4.32;1.10;;;21.00;56.10;;;;;;5093772;28;20048;-68
2023/04/30 08:46:59;;;;;;;5.93;1.10;;;21.00;56.10;;;;;;5093781;28;20111;-68
2023/04/30 08:49:27;;;;;;;3.28;0.80;;;21.00;56.00;;;;;;5074231;28;20472;-66
2023/04/30 08:51:52;;;;;;;5.22;1.10;;;21.00;56.10;;;;;;5094910;28;20080;-67
2023/04/30 08:54:18;;;;;;;3.15;0.93;;;21.00;56.00;;;;;;5094667;28;20314;-67
2023/04/30 08:56:47;;;;;;;2.00;0.80;;;21.00;55.80;;;;;;5093696;28;20479;-67
2023/04/30 08:59:12;;;;;;;4.15;1.35;;;21.00;55.70;;;;;;5094241;28;20040;-67
2023/04/30 09:01:38;;;;;;;2.80;0.88;;;21.00;55.50;;;;;;5094032;28;20052;-67
2023/04/30 09:04:05;;;;;;;3.20;0.90;;;21.00;55.50;;;;;;5093590;28;20048;-67
2023/04/30 09:06:31;;;;;;;4.05;0.85;;;21.00;55.40;;;;;;5094654;28;20048;-67
2023/04/30 09:09:07;;;;;;;3.00;0.80;;;21.10;55.40;;;;;;5094368;28;20096;-67
2023/04/30 09:11:32;;;;;;;5.25;1.40;;;21.00;55.30;;;;;;5093912;28;20044;-67
2023/04/30 09:13:59;;;;;;;3.75;0.95;;;21.00;55.20;;;;;;5093892;28;20062;-67
2023/04/30 09:16:25;;;;;;;4.68;1.00;;;21.00;55.10;;;;;;5094286;28;20048;-66
2023/04/30 09:18:51;;;;;;;4.70;0.90;;;21.00;55.10;;;;;;5094362;28;20081;-68
2023/04/30 09:21:16;;;;;;;2.63;0.73;;;21.00;55.20;;;;;;5093791;28;20043;-69
2023/04/30 09:23:55;;;;;;;6.03;1.65;;;21.00;55.30;;;;;;5090938;28;20040;-68
2023/04/30 09:26:40;;;;;;;2.63;0.70;;;21.00;55.50;;;;;;5093011;28;20126;-68
2023/04/30 09:29:06;;;;;;;4.13;0.80;;;21.00;55.60;;;;;;5093001;28;20052;-68
2023/04/30 09:31:33;;;;;;;2.25;0.70;;;21.00;55.60;;;;;;5091988;28;20127;-67
2023/04/30 09:33:59;;;;;;;4.32;1.00;;;21.00;55.60;;;;;;5092501;28;20388;-67
2023/04/30 09:36:24;;;;;;;2.33;1.00;;;21.00;55.70;;;;;;5094421;28;20535;-68
2023/04/30 09:38:50;;;;;;;5.43;0.80;;;21.00;55.70;;;;;;5093292;28;20047;-67
2023/04/30 09:41:26;;;;;;;2.72;1.00;;;21.00;55.60;;;;;;5093671;28;20048;-68
2023/04/30 09:43:54;;;;;;;1.92;0.88;;;21.00;55.70;;;;;;5094027;28;20048;-67
2023/04/30 09:46:21;;;;;;;4.85;0.70;;;21.00;55.70;;;;;;5091860;28;20068;-68
2023/04/30 09:48:48;;;;;;;3.63;1.00;;;21.00;55.70;;;;;;5094128;28;20040;-67
2023/04/30 09:51:14;;;;;;;1.83;0.85;;;21.00;55.70;;;;;;5092494;28;20105;-69
2023/04/30 09:53:43;;;;;;;3.60;0.90;;;21.00;55.80;;;;;;5093624;28;20083;-67
2023/04/30 09:56:10;;;;;;;6.03;1.20;;;21.00;55.70;;;;;;5092997;28;20132;-69
2023/04/30 09:58:39;;;;;;;5.75;1.05;;;21.00;55.80;;;;;;5092572;28;20178;-69
2023/04/30 10:01:06;;;;;;;5.00;1.02;;;21.00;56.00;;;;;;5093174;28;20136;-70
2023/04/30 10:03:32;;;;;;;4.90;1.10;;;21.00;56.10;;;;;;5099340;28;20043;-68
2023/04/30 10:05:58;;;;;;;4.25;1.20;;;21.00;56.20;;;;;;5095601;28;20047;-69
2023/04/30 10:08:24;;;;;;;2.50;0.82;;;21.00;56.30;;;;;;5082879;28;20137;-67
2023/04/30 10:10:51;;;;;;;3.22;0.85;;;21.00;56.40;;;;;;5092914;28;20082;-66
2023/04/30 10:13:18;;;;;;;5.40;0.98;;;21.00;56.40;;;;;;5091402;28;20376;-65
2023/04/30 10:15:53;;;;;;;6.40;1.00;;;21.10;56.50;;;;;;5093167;28;20051;-67
2023/04/30 10:18:22;;;;;;;2.65;0.82;;;21.10;56.30;;;;;;5091312;28;20487;-67
2023/04/30 10:20:48;;;;;;;3.78;0.90;;;21.10;56.30;;;;;;5090906;28;20403;-67
2023/04/30 10:23:13;;;;;;;4.20;0.90;;;21.10;56.20;;;;;;5091290;28;20502;-66
2023/04/30 10:25:42;;;;;;;4.85;0.85;;;21.20;56.40;;;;;;5091278;28;20102;-66
2023/04/30 10:28:08;;;;;;;5.78;1.10;;;21.20;56.40;;;;;;5091675;28;20048;-67
2023/04/30 10:30:36;;;;;;;3.60;1.17;;;21.20;56.40;;;;;;5093056;28;20040;-67
2023/04/30 10:33:14;;;;;;;3.35;1.17;;;21.20;56.50;;;;;;5092287;28;20047;-67
2023/04/30 10:35:57;;;;;;;6.18;0.90;;;21.20;56.40;;;;;;5082884;28;20036;-65
2023/04/30 10:38:25;;;;;;;3.95;0.90;;;21.20;56.40;;;;;;5091277;28;20072;-66
2023/04/30 10:40:56;;;;;;;6.35;0.93;;;21.20;56.40;;;;;;5090403;28;20046;-66
2023/04/30 10:43:23;;;;;;;5.30;1.10;;;21.20;56.40;;;;;;5092696;28;20052;-65
2023/04/30 10:45:48;;;;;;;6.15;1.00;;;21.30;56.40;;;;;;5092522;28;20044;-65
2023/04/30 10:48:14;;;;;;;5.95;0.93;;;21.30;56.40;;;;;;5089763;28;20586;-67
2023/04/30 10:50:44;;;;;;;3.03;0.90;;;21.20;56.30;;;;;;5100592;28;20093;-67
2023/04/30 10:53:15;;;;;;;4.90;1.20;;;21.30;56.20;;;;;;5110752;28;20044;-67
2023/04/30 10:55:47;;;;;;;5.05;0.90;;;21.30;56.10;;;;;;5092318;28;20127;-67
2023/04/30 10:58:33;;;;;;;4.03;0.90;;;21.30;56.00;;;;;;5092489;28;20047;-67
2023/04/30 11:01:07;;;;;;;3.58;0.98;;;21.30;55.90;;;;;;5092520;28;20051;-67
2023/04/30 11:03:33;;;;;;;8.20;1.15;;;21.30;55.90;;;;;;5091953;28;20123;-67
2023/04/30 11:06:02;;;;;;;4.28;1.00;;;21.30;55.80;;;;;;5092418;28;20050;-67
2023/04/30 11:08:35;;;;;;;4.63;0.88;;;21.30;55.80;;;;;;5091315;28;20047;-66
2023/04/30 11:11:02;;;;;;;4.18;0.90;;;21.30;55.90;;;;;;5091973;28;20040;-66
2023/04/30 11:13:28;;;;;;;5.32;0.90;;;21.30;55.90;;;;;;5092607;28;20043;-66
2023/04/30 11:15:53;;;;;;;4.78;0.85;;;21.30;55.90;;;;;;5092053;28;20042;-66
2023/04/30 11:18:19;;;;;;;3.15;1.10;;;21.30;55.80;;;;;;5075360;28;20049;-66
2023/04/30 11:20:50;;;;;;;4.95;1.00;;;21.30;55.70;;;;;;5113195;28;20047;-66
2023/04/30 11:23:16;;;;;;;6.63;1.00;;;21.30;55.70;;;;;;5110383;28;20074;-67
2023/04/30 11:25:46;;;;;;;6.35;0.95;;;21.30;55.70;;;;;;5111567;28;20093;-66
2023/04/30 11:28:18;;;;;;;4.13;0.93;;;21.30;55.60;;;;;;5112412;28;20059;-67
2023/04/30 11:30:53;;;;;;;3.15;1.23;;;21.30;55.60;;;;;;5112128;28;20100;-66
2023/04/30 11:33:19;;;;;;;3.95;1.08;;;21.30;56.10;;;;;;5112432;28;20048;-66
2023/04/30 11:35:45;;;;;;;5.93;1.00;;;21.30;55.30;;;;;;5092281;28;20051;-66
2023/04/30 11:38:13;;;;;;;4.13;0.90;;;21.30;55.30;;;;;;5091268;28;20392;-66
2023/04/30 11:40:39;;;;;;;2.63;0.73;;;21.30;55.20;;;;;;5070859;28;20044;-66
2023/04/30 11:43:05;;;;;;;4.57;1.20;;;21.30;55.20;;;;;;5070896;28;20054;-66
2023/04/30 11:45:30;;;;;;;2.83;1.55;;;21.30;55.20;;;;;;5087784;28;20040;-66
2023/04/30 11:47:56;;;;;;;4.45;0.85;;;21.30;55.10;;;;;;5090973;28;20040;-66
2023/04/30 11:50:27;;;;;;;5.93;1.10;;;21.30;55.20;;;;;;5092464;28;20036;-66
2023/04/30 11:52:54;;;;;;;3.92;1.10;;;21.20;55.70;;;;;;5091837;28;20479;-66
2023/04/30 11:55:21;;;;;;;3.70;1.00;;;21.20;55.00;;;;;;5092097;28;20032;-66
2023/04/30 11:57:48;;;;;;;3.75;0.88;;;21.20;55.00;;;;;;5092155;28;20376;-66
2023/04/30 12:00:15;;;;;;;2.58;1.25;;;21.20;54.90;;;;;;5091385;28;20087;-66
2023/04/30 12:02:45;;;;;;;2.45;0.95;;;21.20;54.90;;;;;;5092112;28;20048;-66
2023/04/30 12:05:20;;;;;;;4.03;1.10;;;21.20;55.50;;;;;;5091367;28;20040;-66
2023/04/30 12:08:11;;;;;;;4.63;0.93;;;21.20;54.80;;;;;;5092039;28;20056;-66
2023/04/30 12:10:37;;;;;;;2.20;0.77;;;21.20;54.70;;;;;;5091383;28;20496;-65
2023/04/30 12:13:02;;;;;;;5.15;1.25;;;21.20;54.70;;;;;;5091229;28;20044;-65
2023/04/30 12:15:28;;;;;;;3.38;1.08;;;21.20;54.60;;;;;;5092113;28;20549;-65
2023/04/30 12:17:55;;;;;;;3.03;0.80;;;21.20;54.50;;;;;;5092119;28;20368;-65
2023/04/30 12:20:21;;;;;;;3.22;0.90;;;21.20;54.40;;;;;;5094714;28;20574;-65
2023/04/30 12:22:47;;;;;;;3.65;0.90;;;21.20;54.30;;;;;;5095918;28;20044;-65
2023/04/30 12:25:16;;;;;;;3.83;0.88;;;21.20;54.20;;;;;;5107063;28;20122;-65
2023/04/30 12:27:44;;;;;;;5.22;1.00;;;21.20;54.20;;;;;;5115612;28;20046;-65
2023/04/30 12:30:10;;;;;;;3.22;0.70;;;21.20;54.10;;;;;;5115579;28;20044;-65
2023/04/30 12:32:43;;;;;;;3.00;0.80;;;21.20;54.10;;;;;;5115897;28;20047;-67
2023/04/30 12:35:16;;;;;;;4.50;1.10;;;21.20;53.90;;;;;;5114756;28;20055;-69
2023/04/30 12:37:43;;;;;;;2.65;0.82;;;21.20;53.70;;;;;;5116208;28;20051;-69
2023/04/30 12:40:09;;;;;;;3.38;1.05;;;21.20;53.00;;;;;;5115566;28;20040;-69
2023/04/30 12:42:35;;;;;;;5.32;1.20;;;21.20;52.00;;;;;;5101870;28;20089;-69
2023/04/30 12:45:00;;;;;;;4.57;1.20;;;21.10;50.90;;;;;;5095018;28;20040;-69
2023/04/30 12:47:26;;;;;;;4.53;1.30;;;21.10;50.50;;;;;;5094157;28;20083;-69
2023/04/30 12:49:52;;;;;;;4.05;1.33;;;21.10;50.00;;;;;;5102717;28;20046;-69